Time;durP1;ratioP1;P1;durP2;ratioP2;P2;SDS_P1;SDS_P2;PMS_P1;PMS_P2;Temp;Humidity;BMP_temperature;BMP_pressure;BME280_temperature;BME280_humidity;BME280_pressure;Samples;Min_cycle;Max_cycle;Signal;HPM_P1;HPM_P2
2023/03/25 00:01:14;;;;;;;1.15;0.90;;;7.60;99.90;;;;;;5090478;28;20498;-45
2023/03/25 00:03:41;;;;;;;1.63;1.00;;;7.60;99.90;;;;;;5084734;28;20086;-46
2023/03/25 00:06:11;;;;;;;3.25;1.48;;;7.60;99.90;;;;;;5083922;28;20090;-50
2023/03/25 00:08:38;;;;;;;2.35;1.38;;;7.50;99.90;;;;;;5085715;28;20047;-51
2023/03/25 00:11:05;;;;;;;3.63;1.17;;;7.50;99.90;;;;;;5083829;28;20044;-53
2023/03/25 00:13:33;;;;;;;1.90;1.00;;;7.50;99.90;;;;;;5082069;28;20055;-51
2023/03/25 00:16:00;;;;;;;;;;;7.50;99.90;;;;;;5090201;28;20489;-49
2023/03/25 00:18:32;;;;;;;3.72;1.40;;;7.50;99.90;;;;;;5088997;28;20269;-47
2023/03/25 00:21:04;;;;;;;1.67;1.17;;;7.40;99.90;;;;;;5089906;28;20044;-49
2023/03/25 00:23:31;;;;;;;3.20;1.15;;;7.40;99.90;;;;;;5079399;28;20040;-49
2023/03/25 00:26:01;;;;;;;5.93;1.60;;;7.40;99.90;;;;;;5076292;28;20090;-49
2023/03/25 00:28:31;;;;;;;3.53;1.00;;;7.40;99.90;;;;;;5086783;28;20071;-50
2023/03/25 00:31:04;;;;;;;4.50;1.90;;;7.30;99.90;;;;;;5086343;28;20044;-50
2023/03/25 00:33:32;;;;;;;2.13;1.40;;;7.30;99.90;;;;;;5090677;28;20133;-49
2023/03/25 00:35:58;;;;;;;2.58;1.73;;;7.20;99.90;;;;;;5067876;28;20036;-52
2023/03/25 00:38:32;;;;;;;3.53;1.67;;;7.20;99.90;;;;;;5071486;28;20048;-55
2023/03/25 00:41:21;;;;;;;2.15;1.27;;;7.20;99.90;;;;;;5062526;28;20071;-55
2023/03/25 00:43:51;;;;;;;2.38;1.35;;;7.10;99.90;;;;;;5052108;28;20489;-55
2023/03/25 00:46:19;;;;;;;1.70;1.25;;;7.10;99.90;;;;;;5067144;28;20032;-56
2023/03/25 00:48:46;;;;;;;4.03;1.33;;;7.10;99.90;;;;;;5087387;28;20058;-48
2023/03/25 00:51:18;;;;;;;2.08;1.17;;;7.10;99.90;;;;;;5054071;28;20043;-47
2023/03/25 00:53:45;;;;;;;1.70;1.00;;;7.00;99.90;;;;;;5088465;28;20036;-47
2023/03/25 00:56:12;;;;;;;3.97;1.70;;;6.90;99.90;;;;;;5075765;28;20160;-47
2023/03/25 00:58:39;;;;;;;1.35;0.50;;;6.80;99.90;;;;;;5057758;28;20459;-47
2023/03/25 01:01:15;;;;;;;2.15;0.52;;;6.80;99.90;;;;;;5077772;28;20506;-46
2023/03/25 01:03:43;;;;;;;0.65;0.50;;;6.80;99.90;;;;;;5085238;28;20043;-49
2023/03/25 01:06:12;;;;;;;0.75;0.52;;;6.80;99.90;;;;;;5087231;28;20660;-53
2023/03/25 01:08:40;;;;;;;1.23;0.77;;;6.80;99.90;;;;;;5076214;28;20032;-47
2023/03/25 01:11:17;;;;;;;1.15;0.77;;;6.80;99.90;;;;;;5075565;28;20040;-47
2023/03/25 01:13:45;;;;;;;2.15;0.90;;;6.70;99.90;;;;;;5064323;28;20452;-47
2023/03/25 01:16:11;;;;;;;5.38;1.10;;;6.70;99.90;;;;;;5066306;28;20610;-50
2023/03/25 01:18:38;;;;;;;2.67;1.33;;;6.60;99.90;;;;;;5083861;28;20431;-47
2023/03/25 01:21:06;;;;;;;2.85;1.40;;;6.60;99.90;;;;;;5088915;28;20606;-47
2023/03/25 01:23:33;;;;;;;3.13;1.20;;;6.60;99.90;;;;;;5070977;28;20094;-48
2023/03/25 01:26:00;;;;;;;2.63;0.80;;;6.60;99.90;;;;;;5069147;28;20044;-47
2023/03/25 01:28:27;;;;;;;1.95;1.05;;;6.60;99.90;;;;;;5088098;28;20447;-47
2023/03/25 01:31:01;;;;;;;;;;;6.40;99.90;;;;;;5072095;28;20129;-48
2023/03/25 01:33:28;;;;;;;1.35;1.00;;;6.30;99.90;;;;;;5088115;28;19927;-50
2023/03/25 01:35:55;;;;;;;1.33;0.75;;;6.40;99.90;;;;;;5074059;28;20116;-48
2023/03/25 01:38:22;;;;;;;2.05;0.98;;;6.40;99.90;;;;;;5070214;28;20131;-47
2023/03/25 01:40:52;;;;;;;;;;;6.40;99.90;;;;;;5071156;28;20472;-47
2023/03/25 01:43:20;;;;;;;1.42;1.10;;;6.40;99.90;;;;;;5087318;28;19924;-47
2023/03/25 01:45:47;;;;;;;1.52;1.10;;;6.40;99.90;;;;;;5088591;28;20090;-50
2023/03/25 01:48:21;;;;;;;2.10;1.10;;;6.40;99.90;;;;;;5084149;28;20036;-47
2023/03/25 01:50:58;;;;;;;4.40;1.42;;;6.40;99.90;;;;;;5080002;28;20511;-48
2023/03/25 01:53:29;;;;;;;1.83;1.08;;;6.40;99.90;;;;;;5071248;28;20055;-49
2023/03/25 01:56:01;;;;;;;2.60;1.38;;;6.40;99.90;;;;;;5057002;28;20106;-50
2023/03/25 01:58:29;;;;;;;1.42;1.20;;;6.50;99.90;;;;;;5059091;28;20046;-47
2023/03/25 02:00:56;;;;;;;1.90;1.10;;;6.50;99.90;;;;;;5072191;28;20090;-47
2023/03/25 02:03:24;;;;;;;1.92;1.35;;;6.50;99.90;;;;;;5084532;28;20043;-49
2023/03/25 02:06:14;;;;;;;2.38;1.40;;;6.50;99.90;;;;;;5066695;28;20051;-47
2023/03/25 02:08:41;;;;;;;1.75;1.20;;;6.50;99.90;;;;;;5055625;28;20045;-47
2023/03/25 02:11:09;;;;;;;5.85;1.83;;;6.60;99.90;;;;;;5054633;28;20053;-49
2023/03/25 02:13:39;;;;;;;5.47;1.27;;;6.50;99.90;;;;;;5071118;28;20134;-50
2023/03/25 02:16:17;;;;;;;2.80;1.75;;;6.60;99.90;;;;;;5073693;28;20504;-47
2023/03/25 02:18:56;;;;;;;13.10;2.13;;;6.50;99.90;;;;;;5077134;28;20654;-50
2023/03/25 02:21:49;;;;;;;3.17;1.75;;;6.30;99.90;;;;;;5084663;28;20048;-46
2023/03/25 02:24:41;;;;;;;3.15;2.17;;;6.20;99.90;;;;;;5092406;28;20460;-49
2023/03/25 02:27:32;;;;;;;4.97;2.83;;;6.10;99.90;;;;;;5088204;28;20048;-49
2023/03/25 02:30:12;;;;;;;3.38;2.90;;;6.10;99.90;;;;;;5075489;28;20051;-49
2023/03/25 02:33:03;;;;;;;5.63;2.80;;;6.00;99.90;;;;;;5073213;28;20086;-49
2023/03/25 02:35:51;;;;;;;3.90;3.20;;;6.00;99.90;;;;;;5092013;28;20056;-50
2023/03/25 02:38:45;;;;;;;4.50;2.95;;;6.00;99.90;;;;;;5068584;28;20072;-51
2023/03/25 02:41:24;;;;;;;4.97;3.42;;;6.00;99.90;;;;;;5082580;28;20044;-50
2023/03/25 02:44:07;;;;;;;5.20;3.70;;;6.00;99.90;;;;;;5072767;28;20055;-49
2023/03/25 02:46:37;;;;;;;5.63;4.13;;;6.00;99.90;;;;;;5070209;28;20763;-49
2023/03/25 02:49:16;;;;;;;10.75;3.55;;;6.00;99.90;;;;;;5072226;28;20137;-48
2023/03/25 02:51:53;;;;;;;4.82;3.22;;;6.00;99.90;;;;;;5085983;28;20086;-49
2023/03/25 02:54:22;;;;;;;7.03;3.43;;;6.10;99.90;;;;;;5072825;28;20040;-49
2023/03/25 02:56:50;;;;;;;4.13;2.78;;;6.10;99.90;;;;;;5090575;28;20770;-49
2023/03/25 02:59:20;;;;;;;5.32;3.90;;;6.00;99.90;;;;;;5073640;28;20468;-51
2023/03/25 03:02:38;;;;;;;7.47;4.30;;;6.10;99.90;;;;;;5061045;22;20033;-55
2023/03/25 03:05:32;;;;;;;4.82;3.20;;;6.20;99.90;;;;;;5046697;28;20049;-48
2023/03/25 03:08:21;;;;;;;5.55;3.95;;;6.30;99.90;;;;;;5041812;28;20056;-49
2023/03/25 03:10:48;;;;;;;6.30;3.45;;;6.20;99.90;;;;;;5064594;28;20040;-48
2023/03/25 03:13:23;;;;;;;9.38;3.70;;;6.20;99.90;;;;;;5071877;28;20070;-51
2023/03/25 03:16:10;;;;;;;5.70;3.67;;;6.10;99.90;;;;;;5067012;28;20094;-51
2023/03/25 03:18:44;;;;;;;6.00;3.60;;;6.00;99.90;;;;;;5053144;28;20116;-49
2023/03/25 03:21:30;;;;;;;7.38;3.92;;;5.90;99.90;;;;;;5051679;28;20110;-49
2023/03/25 03:24:06;;;;;;;11.63;4.65;;;5.90;99.90;;;;;;5061793;28;20103;-48
2023/03/25 03:26:38;;;;;;;5.65;4.13;;;6.00;99.90;;;;;;5072559;28;20083;-49
2023/03/25 03:29:19;;;;;;;12.25;4.70;;;6.00;99.90;;;;;;5070286;28;20078;-50
2023/03/25 03:32:00;;;;;;;7.00;4.53;;;6.00;99.90;;;;;;5067670;28;20041;-48
2023/03/25 03:34:52;;;;;;;8.05;5.28;;;6.00;99.90;;;;;;5070664;28;20119;-49
2023/03/25 03:37:25;;;;;;;8.15;5.20;;;6.00;99.90;;;;;;5071630;28;20072;-50
2023/03/25 03:39:54;;;;;;;8.23;5.07;;;6.00;99.90;;;;;;5063542;28;20095;-48
2023/03/25 03:42:30;;;;;;;11.00;6.20;;;6.00;99.90;;;;;;5063522;28;20056;-49
2023/03/25 03:45:06;;;;;;;6.80;4.18;;;6.00;99.90;;;;;;5070483;28;20049;-48
2023/03/25 03:47:41;;;;;;;5.68;4.00;;;6.00;99.90;;;;;;5070718;28;20049;-49
2023/03/25 03:50:14;;;;;;;6.05;3.30;;;6.00;99.90;;;;;;5069594;28;20080;-49
2023/03/25 03:52:47;;;;;;;4.43;3.22;;;6.00;99.90;;;;;;5065135;28;20090;-49
2023/03/25 03:55:28;;;;;;;4.95;3.13;;;6.00;99.90;;;;;;5071152;28;20072;-48
2023/03/25 03:58:00;;;;;;;5.60;2.83;;;6.00;99.90;;;;;;5070468;28;20102;-49
2023/03/25 04:01:08;;;;;;;6.15;2.40;;;6.10;99.90;;;;;;5061428;28;20033;-48
2023/03/25 04:03:41;;;;;;;4.38;1.70;;;6.10;99.90;;;;;;5064803;28;20087;-48
2023/03/25 04:06:40;;;;;;;4.30;2.67;;;6.10;99.90;;;;;;5070786;28;20048;-50
2023/03/25 04:09:27;;;;;;;16.52;6.57;;;6.10;99.90;;;;;;5037338;28;20095;-51
2023/03/25 04:11:59;;;;;;;12.10;5.97;;;6.10;99.90;;;;;;5069586;28;20467;-48
2023/03/25 04:14:26;;;;;;;6.20;3.95;;;6.10;99.90;;;;;;5070465;28;20094;-49
2023/03/25 04:16:54;;;;;;;5.75;3.28;;;6.10;99.90;;;;;;5068591;28;20040;-48
2023/03/25 04:19:21;;;;;;;5.45;3.08;;;6.10;99.90;;;;;;5070535;28;20507;-48
2023/03/25 04:21:47;;;;;;;5.43;3.20;;;6.20;99.90;;;;;;5067509;28;20255;-49
2023/03/25 04:24:18;;;;;;;8.15;4.72;;;6.20;99.90;;;;;;5069218;28;20037;-51
2023/03/25 04:26:46;;;;;;;8.00;5.22;;;6.20;99.90;;;;;;5069061;28;20075;-49
2023/03/25 04:29:13;;;;;;;9.73;6.32;;;6.30;99.90;;;;;;5070339;28;20580;-49
2023/03/25 04:31:45;;;;;;;11.45;6.70;;;6.40;99.90;;;;;;5062252;28;20127;-49
2023/03/25 04:34:13;;;;;;;7.32;5.15;;;6.40;99.90;;;;;;5069780;28;20057;-49
2023/03/25 04:36:41;;;;;;;8.70;4.80;;;6.40;99.90;;;;;;5069686;28;20094;-48
2023/03/25 04:39:10;;;;;;;11.20;5.55;;;6.40;99.90;;;;;;5070419;28;20131;-48
2023/03/25 04:41:38;;;;;;;10.15;6.22;;;6.40;99.90;;;;;;5064576;28;20042;-49
2023/03/25 04:44:06;;;;;;;9.05;6.13;;;6.40;99.90;;;;;;5070660;28;20494;-49
2023/03/25 04:46:35;;;;;;;8.45;5.20;;;6.40;99.90;;;;;;5068763;28;20051;-50
2023/03/25 04:49:05;;;;;;;10.38;5.15;;;6.40;99.90;;;;;;5070157;28;20049;-48
2023/03/25 04:51:32;;;;;;;9.52;5.00;;;6.30;99.90;;;;;;5059928;28;20127;-48
2023/03/25 04:53:59;;;;;;;9.02;5.90;;;6.30;99.90;;;;;;5070652;28;20398;-49
2023/03/25 04:56:26;;;;;;;9.57;6.95;;;6.30;99.90;;;;;;5069428;28;20083;-48
2023/03/25 04:58:53;;;;;;;10.40;6.68;;;6.40;99.90;;;;;;5052405;28;20045;-48
2023/03/25 05:01:31;;;;;;;13.68;7.97;;;6.40;99.90;;;;;;5062009;28;20087;-48
2023/03/25 05:04:04;;;;;;;12.23;7.43;;;6.50;99.90;;;;;;5067822;28;20500;-49
2023/03/25 05:06:39;;;;;;;10.40;6.13;;;6.50;99.90;;;;;;5069619;28;20059;-50
2023/03/25 05:09:09;;;;;;;10.13;5.47;;;6.50;99.90;;;;;;5069701;28;20044;-49
2023/03/25 05:11:38;;;;;;;5.93;4.20;;;6.50;99.90;;;;;;5062140;28;20044;-48
2023/03/25 05:14:06;;;;;;;6.93;3.30;;;6.60;99.90;;;;;;5067724;28;20103;-49
2023/03/25 05:16:33;;;;;;;6.18;1.65;;;6.60;99.90;;;;;;5070170;28;20052;-49
2023/03/25 05:19:02;;;;;;;3.20;1.20;;;6.60;99.90;;;;;;5064983;28;20128;-49
2023/03/25 05:21:30;;;;;;;2.60;1.40;;;6.50;99.90;;;;;;5061062;28;20051;-49
2023/03/25 05:23:57;;;;;;;9.80;2.70;;;6.60;99.90;;;;;;5069247;28;20080;-49
2023/03/25 05:26:24;;;;;;;5.45;2.67;;;6.60;99.90;;;;;;5067330;28;20533;-48
2023/03/25 05:28:55;;;;;;;7.05;3.50;;;6.60;99.90;;;;;;5068128;28;20103;-49
2023/03/25 05:31:22;;;;;;;5.93;4.20;;;6.60;99.90;;;;;;5071384;28;20041;-50
2023/03/25 05:33:50;;;;;;;9.95;4.90;;;6.50;99.90;;;;;;5072455;28;20040;-49
2023/03/25 05:36:17;;;;;;;9.00;4.50;;;6.50;99.90;;;;;;5073656;28;20048;-49
2023/03/25 05:38:43;;;;;;;9.27;5.15;;;6.40;99.90;;;;;;5067560;28;20044;-48
2023/03/25 05:41:16;;;;;;;7.22;4.35;;;6.40;99.90;;;;;;5054419;28;20397;-50
2023/03/25 05:43:46;;;;;;;8.30;5.07;;;6.40;99.90;;;;;;5072918;28;20036;-49
2023/03/25 05:46:14;;;;;;;7.22;4.50;;;6.40;99.90;;;;;;5073322;28;20052;-49
2023/03/25 05:48:41;;;;;;;7.20;4.30;;;6.40;99.90;;;;;;5068145;28;20041;-49
2023/03/25 05:51:14;;;;;;;;;;;6.40;99.90;;;;;;5066759;28;20076;-49
2023/03/25 05:53:48;;;;;;;4.60;2.40;;;6.50;99.90;;;;;;5072609;28;19921;-48
2023/03/25 05:56:18;;;;;;;5.30;2.88;;;6.60;99.90;;;;;;5073028;28;20054;-48
2023/03/25 05:58:46;;;;;;;6.78;4.00;;;6.60;99.90;;;;;;5063170;28;20166;-52
2023/03/25 06:01:14;;;;;;;4.90;3.03;;;6.70;99.90;;;;;;5063573;28;20068;-49
2023/03/25 06:04:02;;;;;;;3.90;2.47;;;6.70;99.90;;;;;;5071460;28;20055;-49
2023/03/25 06:06:32;;;;;;;5.05;2.70;;;6.70;99.90;;;;;;5070889;28;20131;-48
2023/03/25 06:09:01;;;;;;;4.88;2.83;;;6.70;99.90;;;;;;5072150;28;20578;-48
2023/03/25 06:11:28;;;;;;;5.63;3.28;;;6.70;99.90;;;;;;5067175;28;20071;-50
2023/03/25 06:13:55;;;;;;;;;;;6.70;99.90;;;;;;5071660;28;20045;-49
2023/03/25 06:16:28;;;;;;;7.60;3.33;;;6.70;99.90;;;;;;5072135;28;19970;-48
2023/03/25 06:18:58;;;;;;;5.55;2.30;;;6.70;99.90;;;;;;5054732;28;20554;-49
2023/03/25 06:21:31;;;;;;;7.30;2.88;;;6.70;99.90;;;;;;5065885;28;20090;-49
2023/03/25 06:24:00;;;;;;;6.28;2.97;;;6.70;99.90;;;;;;5066184;28;20049;-51
2023/03/25 06:26:27;;;;;;;3.25;1.73;;;6.70;99.90;;;;;;5070796;28;20059;-48
2023/03/25 06:28:54;;;;;;;3.63;2.03;;;6.80;99.90;;;;;;5065933;28;20053;-48
2023/03/25 06:31:25;;;;;;;5.25;2.60;;;6.90;99.90;;;;;;5071650;28;20071;-49
2023/03/25 06:33:53;;;;;;;4.82;3.30;;;7.00;99.90;;;;;;5067639;28;20044;-49
2023/03/25 06:36:20;;;;;;;10.43;3.20;;;7.00;99.90;;;;;;5071604;28;20098;-50
2023/03/25 06:38:49;;;;;;;8.13;3.85;;;6.90;99.90;;;;;;5071480;28;20083;-50
2023/03/25 06:41:19;;;;;;;4.68;1.48;;;6.90;99.90;;;;;;5052957;28;20040;-48
2023/03/25 06:43:52;;;;;;;6.70;3.65;;;7.00;99.90;;;;;;5053274;28;20036;-50
2023/03/25 06:46:19;;;;;;;7.32;3.83;;;7.00;99.90;;;;;;5072053;28;20048;-49
2023/03/25 06:49:08;;;;;;;9.95;6.50;;;7.00;99.90;;;;;;5066058;28;20147;-48
2023/03/25 06:51:35;;;;;;;8.35;4.97;;;7.00;99.90;;;;;;5069349;28;20045;-48
2023/03/25 06:54:02;;;;;;;8.68;4.95;;;6.90;99.90;;;;;;5072399;28;20053;-49
2023/03/25 06:56:29;;;;;;;8.75;5.65;;;7.00;99.90;;;;;;5071988;28;20444;-51
2023/03/25 06:58:55;;;;;;;13.38;5.80;;;7.00;99.90;;;;;;5067071;28;20049;-53
2023/03/25 07:01:22;;;;;;;9.02;5.60;;;7.10;99.90;;;;;;5071371;28;20461;-50
2023/03/25 07:03:49;;;;;;;7.88;5.07;;;7.00;99.90;;;;;;5069841;28;20052;-50
2023/03/25 07:06:19;;;;;;;8.27;5.00;;;7.00;99.90;;;;;;5070769;28;20036;-48
2023/03/25 07:08:47;;;;;;;10.15;5.13;;;7.10;99.90;;;;;;5071006;28;20102;-48
2023/03/25 07:11:15;;;;;;;;;;;7.10;99.90;;;;;;5071758;28;20079;-49
2023/03/25 07:13:41;;;;;;;8.50;5.13;;;7.20;99.90;;;;;;5064580;28;19978;-48
2023/03/25 07:16:09;;;;;;;10.60;5.10;;;7.40;99.90;;;;;;5068709;28;20044;-49
2023/03/25 07:18:40;;;;;;;4.07;2.13;;;7.50;99.90;;;;;;5070877;28;20048;-49
2023/03/25 07:21:06;;;;;;;5.82;3.55;;;7.70;99.90;;;;;;5071107;28;20041;-50
2023/03/25 07:23:33;;;;;;;5.15;3.15;;;7.90;99.90;;;;;;5069097;28;20040;-49
2023/03/25 07:26:00;;;;;;;5.45;2.33;;;8.00;99.90;;;;;;5067405;28;20116;-49
2023/03/25 07:28:27;;;;;;;7.50;3.92;;;8.10;99.90;;;;;;5071070;28;20120;-50
2023/03/25 07:30:53;;;;;;;7.57;2.60;;;8.20;99.90;;;;;;5069175;28;20052;-48
2023/03/25 07:33:20;;;;;;;3.55;2.30;;;8.30;99.90;;;;;;5069006;28;20485;-52
2023/03/25 07:35:47;;;;;;;4.28;2.72;;;8.40;99.90;;;;;;5070512;28;20079;-51
2023/03/25 07:38:14;;;;;;;5.97;2.90;;;8.60;99.90;;;;;;5069722;28;20572;-50
2023/03/25 07:40:41;;;;;;;6.50;3.47;;;8.70;99.90;;;;;;5068728;28;20036;-48
2023/03/25 07:43:07;;;;;;;4.05;2.80;;;8.80;99.90;;;;;;5065107;28;20296;-49
2023/03/25 07:45:53;;;;;;;2.67;1.60;;;8.90;99.90;;;;;;5061122;28;20409;-49
2023/03/25 07:48:21;;;;;;;2.65;1.70;;;8.80;99.90;;;;;;5069231;28;20079;-54
2023/03/25 07:50:50;;;;;;;2.28;1.30;;;8.70;99.90;;;;;;5068781;28;20398;-48
2023/03/25 07:53:17;;;;;;;6.00;2.50;;;8.80;99.90;;;;;;5061230;28;20489;-49
2023/03/25 07:55:44;;;;;;;5.57;4.00;;;8.80;99.90;;;;;;5071412;28;20052;-50
2023/03/25 07:58:11;;;;;;;5.60;3.15;;;9.00;99.90;;;;;;5069684;28;20451;-48
2023/03/25 08:00:38;;;;;;;5.93;3.65;;;9.10;99.90;;;;;;5066202;28;20844;-49
2023/03/25 08:03:05;;;;;;;4.90;3.13;;;9.10;99.90;;;;;;5062985;28;20107;-49
2023/03/25 08:05:32;;;;;;;2.13;1.45;;;9.40;99.90;;;;;;5070849;28;20060;-49
2023/03/25 08:07:59;;;;;;;2.58;1.20;;;9.60;99.90;;;;;;5068938;28;20500;-52
2023/03/25 08:10:26;;;;;;;0.70;0.50;;;9.80;99.90;;;;;;5078117;28;20504;-49
2023/03/25 08:12:53;;;;;;;;;;;9.90;99.90;;;;;;5047913;28;20461;-49
2023/03/25 08:15:23;;;;;;;3.10;1.30;;;9.80;99.90;;;;;;5061884;28;19970;-49
2023/03/25 08:17:53;;;;;;;1.55;0.90;;;9.60;99.90;;;;;;5069657;28;20060;-49
2023/03/25 08:20:20;;;;;;;2.35;1.30;;;9.50;99.90;;;;;;5064867;28;20065;-49
2023/03/25 08:22:47;;;;;;;2.65;0.40;;;9.30;99.90;;;;;;5066537;28;20434;-49
2023/03/25 08:25:13;;;;;;;0.98;0.38;;;9.20;99.90;;;;;;5070546;28;20099;-49
2023/03/25 08:27:40;;;;;;;0.20;0.20;;;9.10;99.90;;;;;;5069099;28;20462;-52
2023/03/25 08:30:09;;;;;;;0.68;0.28;;;9.10;99.90;;;;;;5049882;28;20120;-49
2023/03/25 08:32:37;;;;;;;1.88;0.43;;;9.40;99.90;;;;;;5065429;28;20040;-51
2023/03/25 08:35:05;;;;;;;0.50;0.30;;;9.70;99.90;;;;;;5052519;28;20040;-55
2023/03/25 08:37:36;;;;;;;0.20;0.15;;;10.00;99.90;;;;;;5069428;28;20417;-53
2023/03/25 08:40:07;;;;;;;1.15;0.30;;;10.30;99.90;;;;;;5062927;28;20119;-50
2023/03/25 08:42:35;;;;;;;1.23;0.88;;;10.50;99.90;;;;;;5061460;28;20075;-49
2023/03/25 08:45:04;;;;;;;2.65;0.70;;;10.40;99.90;;;;;;5066695;28;20075;-50
2023/03/25 08:47:31;;;;;;;2.28;0.30;;;10.50;99.90;;;;;;5064092;28;20505;-48
2023/03/25 08:49:58;;;;;;;4.35;2.33;;;10.70;99.90;;;;;;5063657;28;20055;-48
2023/03/25 08:52:24;;;;;;;0.32;0.30;;;10.90;99.90;;;;;;5069488;28;20045;-48
2023/03/25 08:54:51;;;;;;;2.80;0.30;;;11.10;99.90;;;;;;5069869;28;20072;-49
2023/03/25 08:57:18;;;;;;;0.22;0.20;;;11.30;99.90;;;;;;5066817;28;20118;-49
2023/03/25 08:59:44;;;;;;;0.50;0.35;;;11.50;99.90;;;;;;5071057;28;20094;-48
2023/03/25 09:02:12;;;;;;;7.95;3.17;;;11.70;99.90;;;;;;5062557;28;20076;-48
2023/03/25 09:04:38;;;;;;;6.53;0.95;;;11.60;99.90;;;;;;5073276;28;20047;-50
2023/03/25 09:07:09;;;;;;;1.05;0.73;;;11.30;99.90;;;;;;5073385;28;20072;-48
2023/03/25 09:09:41;;;;;;;0.47;0.13;;;11.30;99.90;;;;;;5061248;28;20132;-49
2023/03/25 09:12:08;;;;;;;1.85;0.10;;;11.30;99.90;;;;;;5072683;28;20044;-50
2023/03/25 09:14:35;;;;;;;;;;;11.60;99.90;;;;;;5071171;28;20041;-48
2023/03/25 09:17:03;;;;;;;1.75;0.20;;;11.90;99.90;;;;;;5074469;28;20409;-49
2023/03/25 09:19:30;;;;;;;0.73;0.20;;;12.10;99.90;;;;;;5071937;28;20098;-49
2023/03/25 09:21:56;;;;;;;0.20;0.20;;;12.30;99.90;;;;;;5073312;28;20036;-48
2023/03/25 09:24:23;;;;;;;0.43;0.30;;;12.60;99.90;;;;;;5071503;28;20036;-49
2023/03/25 09:26:50;;;;;;;2.63;0.30;;;12.90;99.90;;;;;;5073979;28;20032;-50
2023/03/25 09:29:17;;;;;;;1.33;0.22;;;12.80;99.90;;;;;;5072478;28;20072;-49
2023/03/25 09:31:44;;;;;;;0.77;0.20;;;13.00;99.90;;;;;;5074200;28;20060;-48
2023/03/25 09:34:10;;;;;;;1.00;0.30;;;13.10;99.90;;;;;;5070073;28;20400;-49
2023/03/25 09:36:37;;;;;;;2.67;0.30;;;12.80;99.90;;;;;;5067863;28;20090;-49
2023/03/25 09:39:04;;;;;;;1.23;0.30;;;12.70;99.90;;;;;;5072299;28;20064;-48
2023/03/25 09:42:11;;;;;;;0.45;0.20;;;12.80;99.90;;;;;;5074204;28;20067;-49
2023/03/25 09:44:43;;;;;;;0.45;0.22;;;12.70;99.90;;;;;;5058249;28;20382;-50
2023/03/25 09:47:11;;;;;;;1.55;0.20;;;12.60;99.90;;;;;;5072469;28;20072;-50
2023/03/25 09:49:45;;;;;;;1.05;0.20;;;12.70;99.90;;;;;;5069991;28;20044;-48
2023/03/25 09:52:18;;;;;;;0.70;0.28;;;12.70;98.90;;;;;;5073066;28;20049;-51
2023/03/25 09:54:52;;;;;;;2.85;0.40;;;12.90;99.90;;;;;;5071485;28;20079;-48
2023/03/25 09:57:27;;;;;;;2.70;0.30;;;13.10;99.90;;;;;;5073349;28;20037;-48
2023/03/25 09:59:56;;;;;;;1.95;0.15;;;13.10;99.90;;;;;;5072336;28;20117;-48
2023/03/25 10:02:45;;;;;;;3.28;0.50;;;13.10;99.90;;;;;;5066135;28;20098;-49
2023/03/25 10:05:37;;;;;;;1.60;0.28;;;13.30;99.40;;;;;;5076031;28;20057;-48
2023/03/25 10:08:23;;;;;;;1.75;0.30;;;13.30;99.90;;;;;;5067935;28;20493;-50
2023/03/25 10:11:10;;;;;;;0.60;0.20;;;13.40;99.40;;;;;;5072645;28;20520;-48
2023/03/25 10:13:49;;;;;;;2.97;0.30;;;13.50;98.50;;;;;;5072321;28;20496;-49
2023/03/25 10:16:34;;;;;;;0.73;0.30;;;13.40;97.90;;;;;;5070367;28;20559;-50
2023/03/25 10:19:18;;;;;;;2.50;0.77;;;13.50;99.20;;;;;;5078261;28;20051;-48
2023/03/25 10:22:00;;;;;;;1.48;0.35;;;13.70;98.40;;;;;;5079410;28;20047;-48
2023/03/25 10:24:33;;;;;;;1.02;0.22;;;13.90;96.00;;;;;;5081450;28;20393;-48
2023/03/25 10:27:10;;;;;;;1.05;0.30;;;14.10;95.00;;;;;;5067834;28;20082;-50
2023/03/25 10:29:48;;;;;;;0.85;0.30;;;14.30;96.00;;;;;;5072570;28;20106;-50
2023/03/25 10:32:29;;;;;;;0.98;0.40;;;14.40;98.60;;;;;;5067571;28;20081;-50
2023/03/25 10:34:57;;;;;;;0.50;0.40;;;14.70;99.20;;;;;;5075606;28;20044;-49
2023/03/25 10:37:28;;;;;;;0.85;0.52;;;14.50;99.20;;;;;;5074940;28;20121;-48
2023/03/25 10:40:09;;;;;;;1.00;0.50;;;14.40;98.40;;;;;;5072247;28;20040;-48
2023/03/25 10:42:40;;;;;;;0.85;0.40;;;14.30;98.00;;;;;;5078337;28;20436;-49
2023/03/25 10:45:13;;;;;;;1.70;0.50;;;14.10;98.70;;;;;;5078339;28;20251;-48
2023/03/25 10:47:43;;;;;;;0.82;0.32;;;13.90;99.40;;;;;;5074928;28;20087;-48
2023/03/25 10:50:18;;;;;;;1.60;0.40;;;14.10;98.80;;;;;;5072228;28;20150;-49
2023/03/25 10:52:48;;;;;;;1.40;0.75;;;14.10;99.50;;;;;;5080753;28;20040;-49
2023/03/25 10:55:23;;;;;;;0.52;0.35;;;14.10;97.60;;;;;;5084686;28;20098;-49
2023/03/25 10:57:51;;;;;;;1.88;0.50;;;14.30;98.10;;;;;;5072435;28;20041;-50
2023/03/25 11:00:23;;;;;;;1.25;0.47;;;14.40;98.20;;;;;;5068801;28;20071;-52
2023/03/25 11:02:50;;;;;;;0.90;0.60;;;14.20;97.50;;;;;;5061821;28;20513;-48
2023/03/25 11:05:21;;;;;;;0.85;0.40;;;14.10;97.50;;;;;;5050383;28;20136;-51
2023/03/25 11:07:54;;;;;;;1.90;0.70;;;13.90;97.70;;;;;;5072405;28;20437;-48
2023/03/25 11:10:25;;;;;;;0.38;0.30;;;14.20;99.80;;;;;;5070055;28;20045;-48
2023/03/25 11:12:55;;;;;;;0.85;0.43;;;14.30;98.30;;;;;;5072343;28;20049;-56
2023/03/25 11:15:28;;;;;;;0.75;0.32;;;14.40;99.90;;;;;;5061792;28;20102;-49
2023/03/25 11:17:59;;;;;;;4.18;0.32;;;14.10;97.00;;;;;;5072082;28;20044;-49
2023/03/25 11:20:36;;;;;;;0.50;0.40;;;14.30;96.50;;;;;;5070089;28;20067;-50
2023/03/25 11:23:13;;;;;;;0.45;0.30;;;14.10;95.40;;;;;;5072874;28;20072;-49
2023/03/25 11:25:42;;;;;;;2.22;0.20;;;14.10;97.10;;;;;;5072832;28;20064;-49
2023/03/25 11:28:20;;;;;;;0.17;0.10;;;14.20;95.40;;;;;;5080210;28;20381;-49
2023/03/25 11:31:05;;;;;;;;;;;14.30;93.90;;;;;;5074561;28;20041;-50
2023/03/25 11:33:32;;;;;;;0.10;0.10;;;14.20;91.70;;;;;;5082276;28;20014;-50
2023/03/25 11:36:12;;;;;;;0.22;0.10;;;14.50;91.20;;;;;;5074737;28;20520;-50
2023/03/25 11:38:39;;;;;;;0.22;0.22;;;14.50;90.40;;;;;;5073529;28;20037;-50
2023/03/25 11:41:06;;;;;;;;;;;14.40;91.30;;;;;;5083072;28;20060;-49
2023/03/25 11:43:36;;;;;;;0.80;0.20;;;14.40;91.90;;;;;;5074660;28;19956;-50
2023/03/25 11:46:11;;;;;;;0.13;0.13;;;14.50;90.80;;;;;;5067816;28;20535;-53
2023/03/25 11:48:41;;;;;;;0.52;0.25;;;14.20;89.70;;;;;;5067330;28;20032;-49
2023/03/25 11:51:13;;;;;;;1.00;0.20;;;14.30;90.30;;;;;;5070913;28;20451;-52
2023/03/25 11:54:16;;;;;;;0.20;0.20;;;14.50;90.40;;;;;;5067269;28;20389;-52
2023/03/25 11:56:47;;;;;;;1.85;0.10;;;14.50;90.00;;;;;;5057246;28;20099;-51
2023/03/25 11:59:36;;;;;;;0.30;0.30;;;13.90;87.40;;;;;;5068073;28;20075;-53
2023/03/25 12:02:15;;;;;;;;;;;13.90;90.50;;;;;;5070241;28;20044;-50
2023/03/25 12:05:11;;;;;;;0.30;0.10;;;13.90;91.20;;;;;;5069222;28;19920;-53
2023/03/25 12:07:43;;;;;;;0.47;0.20;;;14.10;90.20;;;;;;5069772;28;20048;-54
2023/03/25 12:10:19;;;;;;;1.25;0.17;;;14.30;90.60;;;;;;5070727;28;20550;-53
2023/03/25 12:12:49;;;;;;;0.30;0.20;;;14.20;88.80;;;;;;5058648;28;20653;-54
2023/03/25 12:15:36;;;;;;;0.03;0.00;;;14.30;90.10;;;;;;5071958;28;20119;-49
2023/03/25 12:18:32;;;;;;;0.05;0.05;;;14.40;90.00;;;;;;5070185;28;20032;-53
2023/03/25 12:21:14;;;;;;;1.83;0.40;;;14.60;90.00;;;;;;5068191;28;20043;-50
2023/03/25 12:24:21;;;;;;;0.52;0.30;;;14.80;91.50;;;;;;5068220;28;20592;-50
2023/03/25 12:26:59;;;;;;;0.70;0.30;;;14.80;91.80;;;;;;5066088;28;20497;-51
2023/03/25 12:29:39;;;;;;;2.15;0.15;;;15.20;91.40;;;;;;5065470;28;20461;-49
2023/03/25 12:32:26;;;;;;;0.25;0.20;;;15.20;90.60;;;;;;5066986;28;20449;-49
2023/03/25 12:35:24;;;;;;;0.10;0.10;;;15.10;90.50;;;;;;5069511;28;20055;-52
2023/03/25 12:38:05;;;;;;;0.40;0.10;;;15.10;91.20;;;;;;5047357;28;20032;-50
2023/03/25 12:41:08;;;;;;;4.20;0.10;;;14.70;88.90;;;;;;5068827;28;20085;-50
2023/03/25 12:43:57;;;;;;;1.65;0.10;;;14.60;92.30;;;;;;5031114;28;20049;-51
2023/03/25 12:46:54;;;;;;;0.73;0.10;;;14.70;90.60;;;;;;5025525;28;20052;-50
2023/03/25 12:49:40;;;;;;;0.80;0.40;;;14.50;90.10;;;;;;5036100;28;20487;-51
2023/03/25 12:52:40;;;;;;;0.45;0.10;;;14.50;90.90;;;;;;5042288;28;20041;-50
2023/03/25 12:55:22;;;;;;;;;;;14.30;90.20;;;;;;5026549;28;20502;-50
2023/03/25 12:58:26;;;;;;;1.02;0.30;;;14.20;91.00;;;;;;5066991;28;19921;-50
2023/03/25 13:00:58;;;;;;;0.55;0.20;;;13.90;91.20;;;;;;5064161;28;20130;-51
2023/03/25 13:03:51;;;;;;;0.25;0.20;;;13.50;92.00;;;;;;5051850;28;20553;-50
2023/03/25 13:06:40;;;;;;;0.20;0.20;;;13.20;93.40;;;;;;5047173;28;20568;-51
2023/03/25 13:09:20;;;;;;;0.10;0.10;;;12.60;95.40;;;;;;5047192;28;20044;-52
2023/03/25 13:12:23;;;;;;;0.10;0.05;;;12.10;97.90;;;;;;5066138;28;20227;-50
2023/03/25 13:15:12;;;;;;;0.20;0.10;;;11.50;99.90;;;;;;5049796;28;20076;-52
2023/03/25 13:17:56;;;;;;;0.10;0.10;;;11.90;99.90;;;;;;5065812;28;20039;-49
2023/03/25 13:20:26;;;;;;;0.20;0.20;;;12.50;99.90;;;;;;5056277;28;20037;-54
2023/03/25 13:23:00;;;;;;;0.35;0.15;;;12.80;99.90;;;;;;5063806;28;20064;-52
2023/03/25 13:25:41;;;;;;;0.20;0.10;;;12.80;99.90;;;;;;5067176;28;20048;-50
2023/03/25 13:28:14;;;;;;;0.20;0.20;;;13.00;99.90;;;;;;5068327;28;20051;-51